Myrtle, Nebraska
Current Conditions -  °F | °C
As of 1:53 AM on Monday 22 Dec 2014 (Local Time) from KBBW Reporting Station
Overcast Overcast  
Wind Chill: 31°   Ceiling: 8500
Heat Index: 36°   Visibility: 8mi
Dew Point: 33°   Wind: 6mph
Humidity: 89%   Direction: 270°W
Pressure: 29.48"   Gusts: NA
Location:  41.3289°N, 99.3286°W
Report Text: KBBW 220753Z AUTO 27005KT 8SM OVC085 02/01 A2948 RMK AO2 SLP991 T00220006
Loading
Personal Weather Stations






























Interactive Weather Map New forecast layout! Learn more

10-Day Weather Forecast

Advertisements
Track Severe Weather on mobile